createdAt,value
2022-08-14T00:01:10.175Z,7.75
2022-08-14T00:03:40.744Z,3.25
2022-08-14T00:06:25.791Z,4.97
2022-08-14T00:08:59.271Z,5.20
2022-08-14T00:11:28.845Z,6.05
2022-08-14T00:14:01.499Z,7.22
2022-08-14T00:16:41.783Z,8.00
2022-08-14T00:19:19.605Z,5.20
2022-08-14T00:21:51.271Z,7.60
2022-08-14T00:24:22.959Z,7.07
2022-08-14T00:26:58.292Z,4.32
2022-08-14T00:29:40.132Z,6.03
2022-08-14T00:32:50.651Z,5.18
2022-08-14T00:35:01.153Z,5.00
2022-08-14T00:37:31.984Z,4.50
2022-08-14T00:40:00.349Z,4.32
2022-08-14T00:42:54.870Z,7.13
2022-08-14T00:45:18.748Z,5.95
2022-08-14T00:47:50.525Z,4.50
2022-08-14T00:50:20.138Z,6.03
2022-08-14T00:52:54.223Z,5.10
2022-08-14T00:55:23.389Z,4.30
2022-08-14T00:58:11.973Z,5.78
2022-08-14T01:00:50.889Z,5.30
2022-08-14T01:03:27.558Z,4.13
2022-08-14T01:06:00.563Z,4.68
2022-08-14T01:08:57.894Z,5.25
2022-08-14T01:11:19.766Z,4.72
2022-08-14T01:13:55.678Z,7.10
2022-08-14T01:16:31.194Z,8.00
2022-08-14T01:19:19.767Z,6.30
2022-08-14T01:21:52.947Z,5.30
2022-08-14T01:24:24.777Z,4.75
2022-08-14T01:27:00.338Z,4.90
2022-08-14T01:29:58.071Z,6.00
2022-08-14T01:32:23.143Z,7.85
2022-08-14T01:35:21.220Z,5.60
2022-08-14T01:37:46.802Z,5.97
2022-08-14T01:40:37.214Z,8.00
2022-08-14T01:43:18.849Z,10.57
2022-08-14T01:46:06.532Z,5.20
2022-08-14T01:51:19.958Z,7.30
2022-08-14T01:53:55.478Z,5.50
2022-08-14T01:56:36.946Z,6.30
2022-08-14T01:59:10.231Z,5.15
2022-08-14T02:01:51.410Z,5.38
2022-08-14T02:04:40.752Z,8.00
2022-08-14T02:07:15.976Z,7.35
2022-08-14T02:09:45.220Z,7.50
2022-08-14T02:12:26.531Z,5.10
2022-08-14T02:15:00.458Z,6.95
2022-08-14T02:17:30.606Z,6.53
2022-08-14T02:19:58.985Z,7.18
2022-08-14T02:22:29.206Z,8.15
2022-08-14T02:25:02.602Z,7.60
2022-08-14T02:28:23.589Z,6.07
2022-08-14T02:30:18.338Z,5.88
2022-08-14T02:32:46.832Z,5.40
2022-08-14T02:35:18.747Z,6.35
2022-08-14T02:37:49.073Z,8.27
2022-08-14T02:40:32.269Z,7.22
2022-08-14T02:43:02.436Z,5.93
2022-08-14T02:45:38.285Z,6.57
2022-08-14T02:49:03.009Z,7.50
2022-08-14T02:51:01.491Z,9.25
2022-08-14T02:53:31.296Z,6.63
2022-08-14T02:56:04.651Z,8.00
2022-08-14T02:58:52.865Z,6.18
2022-08-14T03:01:31.535Z,10.52
2022-08-14T03:04:12.792Z,14.40
2022-08-14T03:07:06.043Z,7.93
2022-08-14T03:10:24.426Z,6.95
2022-08-14T03:12:30.842Z,7.75
2022-08-14T03:15:03.662Z,7.65
2022-08-14T03:17:41.023Z,6.60
2022-08-14T03:20:22.433Z,9.15
2022-08-14T03:22:51.379Z,6.75
2022-08-14T03:25:21.728Z,9.15
2022-08-14T03:27:58.678Z,6.82
2022-08-14T03:30:39.738Z,9.65
2022-08-14T03:33:11.065Z,8.18
2022-08-14T03:36:00.293Z,9.95
2022-08-14T03:39:16.052Z,7.90
2022-08-14T03:41:20.377Z,7.47
2022-08-14T03:44:00.828Z,7.07
2022-08-14T03:46:52.593Z,9.25
2022-08-14T03:49:24.280Z,7.68
2022-08-14T03:51:57.798Z,9.77
2022-08-14T03:54:26.361Z,6.93
2022-08-14T03:56:54.842Z,9.63
2022-08-14T03:59:24.215Z,9.35
2022-08-14T04:02:01.512Z,9.60
2022-08-14T04:04:30.726Z,8.23
2022-08-14T04:07:00.406Z,7.68
2022-08-14T04:09:29.228Z,8.23
2022-08-14T04:11:57.986Z,9.60
2022-08-14T04:14:29.137Z,10.35
2022-08-14T04:16:57.404Z,7.20
2022-08-14T04:19:32.758Z,10.68
2022-08-14T04:22:03.566Z,9.65
2022-08-14T04:24:38.069Z,9.75
2022-08-14T04:27:07.360Z,7.40
2022-08-14T04:29:39.879Z,8.55
2022-08-14T04:33:01.886Z,13.13
2022-08-14T04:34:56.883Z,9.18
2022-08-14T04:37:53.867Z,8.02
2022-08-14T04:40:40.597Z,9.52
2022-08-14T04:43:26.143Z,7.53
2022-08-14T04:46:10.137Z,6.75
2022-08-14T04:49:00.077Z,9.25
2022-08-14T04:51:28.243Z,8.93
2022-08-14T04:54:00.125Z,9.65
2022-08-14T04:56:34.200Z,8.68
2022-08-14T04:59:10.614Z,8.88
2022-08-14T05:01:47.711Z,8.98
2022-08-14T05:04:19.906Z,8.65
2022-08-14T05:06:49.500Z,9.18
2022-08-14T05:09:21.569Z,8.43
2022-08-14T05:11:49.822Z,9.52
2022-08-14T05:14:46.056Z,10.90
2022-08-14T05:17:12.030Z,9.23
2022-08-14T05:19:44.555Z,11.60
2022-08-14T05:22:27.713Z,14.15
2022-08-14T05:24:55.570Z,10.90
2022-08-14T05:27:24.061Z,9.02
2022-08-14T05:29:55.375Z,9.35
2022-08-14T05:32:28.124Z,9.30
2022-08-14T05:34:57.870Z,11.93
2022-08-14T05:37:26.579Z,10.75
2022-08-14T05:39:54.916Z,11.27
2022-08-14T05:42:29.215Z,11.10
2022-08-14T05:44:59.710Z,10.90
2022-08-14T05:47:39.395Z,7.90
2022-08-14T05:50:17.238Z,9.63
2022-08-14T05:52:46.802Z,8.55
2022-08-14T05:55:15.319Z,9.35
2022-08-14T05:57:49.111Z,8.50
2022-08-14T06:00:24.412Z,10.13
2022-08-14T06:02:56.125Z,7.38
2022-08-14T06:05:28.995Z,7.15
2022-08-14T06:07:58.482Z,6.32
2022-08-14T06:10:28.393Z,7.53
2022-08-14T06:12:58.143Z,7.45
2022-08-14T06:15:29.910Z,6.97
2022-08-14T06:18:00.673Z,8.45
2022-08-14T06:20:30.698Z,8.13
2022-08-14T06:22:59.487Z,9.77
2022-08-14T06:25:28.615Z,7.60
2022-08-14T06:27:58.152Z,8.05
2022-08-14T06:30:46.289Z,8.30
2022-08-14T06:33:18.448Z,6.93
2022-08-14T06:35:47.404Z,8.13
2022-08-14T06:38:18.062Z,7.15
2022-08-14T06:40:47.077Z,9.00
2022-08-14T06:43:15.898Z,11.43
2022-08-14T06:45:50.244Z,6.50
2022-08-14T06:48:24.945Z,6.75
2022-08-14T06:50:54.874Z,6.22
2022-08-14T06:53:28.001Z,10.52
2022-08-14T06:56:02.129Z,6.13
2022-08-14T06:58:32.103Z,7.70
2022-08-14T07:01:24.873Z,8.20
2022-08-14T07:04:22.863Z,9.05
2022-08-14T07:06:55.445Z,7.50
2022-08-14T07:09:27.965Z,9.45
2022-08-14T07:11:56.285Z,7.75
2022-08-14T07:14:25.758Z,6.22
2022-08-14T07:16:54.331Z,5.28
2022-08-14T07:19:24.180Z,5.75
2022-08-14T07:21:52.777Z,6.10
2022-08-14T07:24:21.815Z,7.10
2022-08-14T07:26:54.369Z,5.57
2022-08-14T07:29:26.207Z,6.25
2022-08-14T07:31:54.977Z,11.32
2022-08-14T07:34:36.050Z,5.65
2022-08-14T07:37:05.700Z,6.35
2022-08-14T07:39:34.579Z,6.60
2022-08-14T07:42:03.223Z,4.68
2022-08-14T07:44:35.470Z,5.13
2022-08-14T07:47:15.773Z,6.75
2022-08-14T07:49:55.695Z,5.75
2022-08-14T07:52:30.942Z,5.45
2022-08-14T07:55:01.472Z,4.30
2022-08-14T07:57:29.345Z,6.40
2022-08-14T07:59:57.537Z,8.02
2022-08-14T08:02:28.990Z,6.45
2022-08-14T08:05:03.179Z,5.90
2022-08-14T08:07:32.439Z,5.82
2022-08-14T08:10:31.370Z,6.40
2022-08-14T08:13:16.103Z,5.22
2022-08-14T08:15:46.207Z,5.32
2022-08-14T08:18:20.188Z,4.55
2022-08-14T08:20:59.608Z,4.95
2022-08-14T08:23:34.397Z,5.82
2022-08-14T08:26:09.033Z,8.43
2022-08-14T08:28:36.923Z,6.38
2022-08-14T08:31:06.694Z,7.97
2022-08-14T08:33:37.883Z,4.72
2022-08-14T08:36:12.973Z,6.35
2022-08-14T08:39:17.340Z,5.82
2022-08-14T08:41:41.383Z,5.03
2022-08-14T08:44:30.053Z,4.93
2022-08-14T08:47:01.502Z,5.20
2022-08-14T08:49:42.214Z,5.30
2022-08-14T08:52:15.302Z,6.15
2022-08-14T08:54:56.827Z,5.82
2022-08-14T08:57:24.960Z,4.15
2022-08-14T08:59:54.963Z,3.83
2022-08-14T09:02:25.936Z,4.57
2022-08-14T09:05:03.327Z,4.68
2022-08-14T09:07:33.028Z,6.03
2022-08-14T09:10:01.435Z,5.07
2022-08-14T09:12:32.515Z,6.63
2022-08-14T09:15:02.743Z,3.85
2022-08-14T09:17:30.847Z,5.82
2022-08-14T09:20:01.927Z,5.43
2022-08-14T09:22:36.384Z,4.32
2022-08-14T09:25:10.236Z,5.90
2022-08-14T09:27:39.726Z,4.93
2022-08-14T09:30:30.661Z,5.15
2022-08-14T09:33:12.964Z,3.70
2022-08-14T09:35:56.496Z,2.80
2022-08-14T09:38:34.092Z,5.95
2022-08-14T09:41:11.982Z,6.70
2022-08-14T09:43:48.771Z,5.25
2022-08-14T09:46:21.217Z,4.88
2022-08-14T09:48:59.741Z,5.85
2022-08-14T09:51:32.601Z,3.17
2022-08-14T09:54:18.181Z,2.78
2022-08-14T09:56:59.439Z,3.63
2022-08-14T09:59:32.130Z,3.60
2022-08-14T10:02:01.831Z,2.92
2022-08-14T10:04:33.875Z,3.47
2022-08-14T10:07:04.845Z,2.67
2022-08-14T10:09:35.234Z,2.60
2022-08-14T10:12:05.061Z,3.80
2022-08-14T10:14:36.937Z,3.60
2022-08-14T10:17:08.496Z,2.47
2022-08-14T10:19:48.277Z,3.92
2022-08-14T10:23:15.492Z,2.10
2022-08-14T10:25:14.313Z,3.53
2022-08-14T10:27:46.336Z,3.90
2022-08-14T10:30:22.848Z,3.30
2022-08-14T10:32:55.513Z,3.38
2022-08-14T10:35:31.082Z,3.10
2022-08-14T10:38:01.780Z,2.38
2022-08-14T10:40:43.723Z,3.47
2022-08-14T10:43:23.016Z,4.57
2022-08-14T10:46:03.390Z,5.57
2022-08-14T10:48:57.736Z,2.00
2022-08-14T10:51:27.339Z,3.83
2022-08-14T10:54:01.836Z,2.40
2022-08-14T10:56:46.486Z,3.33
2022-08-14T10:59:14.289Z,2.45
2022-08-14T11:01:43.054Z,2.60
2022-08-14T11:04:30.531Z,5.72
2022-08-14T11:06:59.649Z,3.38
2022-08-14T11:09:31.758Z,4.30
2022-08-14T11:12:33.705Z,4.50
2022-08-14T11:14:59.089Z,2.38
2022-08-14T11:17:28.604Z,2.53
2022-08-14T11:20:01.690Z,4.95
2022-08-14T11:22:56.369Z,3.55
2022-08-14T11:25:23.397Z,2.10
2022-08-14T11:27:55.008Z,2.10
2022-08-14T11:30:50.403Z,4.38
2022-08-14T11:33:16.386Z,2.42
2022-08-14T11:35:49.612Z,3.95
2022-08-14T11:38:21.618Z,2.75
2022-08-14T11:40:49.813Z,3.55
2022-08-14T11:43:22.823Z,2.28
2022-08-14T11:45:58.160Z,2.13
2022-08-14T11:49:02.526Z,3.35
2022-08-14T11:51:23.967Z,3.35
2022-08-14T11:53:54.148Z,1.73
2022-08-14T11:56:25.370Z,1.65
2022-08-14T11:58:55.408Z,3.15
2022-08-14T12:01:28.707Z,4.20
2022-08-14T12:04:08.748Z,3.85
2022-08-14T12:06:56.797Z,2.10
2022-08-14T12:09:32.677Z,2.55
2022-08-14T12:12:01.257Z,3.13
2022-08-14T12:14:35.359Z,2.15
2022-08-14T12:17:12.015Z,2.13
2022-08-14T12:19:53.711Z,2.30
2022-08-14T12:22:34.661Z,3.00
2022-08-14T12:25:06.122Z,2.35
2022-08-14T12:27:52.481Z,2.85
2022-08-14T12:30:38.110Z,1.98
2022-08-14T12:33:22.007Z,2.67
2022-08-14T12:35:56.405Z,2.33
2022-08-14T12:38:34.027Z,2.72
2022-08-14T12:41:06.339Z,2.67
2022-08-14T12:43:46.282Z,3.75
2022-08-14T12:46:27.187Z,3.13
2022-08-14T12:48:56.899Z,3.33
2022-08-14T12:51:27.530Z,2.03
2022-08-14T12:53:59.441Z,1.98
2022-08-14T12:56:34.106Z,2.50
2022-08-14T12:59:03.390Z,1.98
2022-08-14T13:01:59.738Z,2.00
2022-08-14T13:04:23.809Z,2.10
2022-08-14T13:06:53.827Z,3.55
2022-08-14T13:09:27.788Z,2.53
2022-08-14T13:12:31.934Z,2.80
2022-08-14T13:14:57.819Z,2.17
2022-08-14T13:17:28.368Z,1.50
2022-08-14T13:19:58.356Z,2.05
2022-08-14T13:22:33.490Z,2.17
2022-08-14T13:25:05.669Z,2.03
2022-08-14T13:27:38.566Z,2.70
2022-08-14T13:30:10.737Z,1.90
2022-08-14T13:32:50.551Z,1.80
2022-08-14T13:35:19.438Z,4.10
2022-08-14T13:37:49.638Z,1.60
2022-08-14T13:40:26.528Z,2.25
2022-08-14T13:42:57.157Z,1.90
2022-08-14T13:45:35.068Z,3.58
2022-08-14T13:48:32.332Z,4.72
2022-08-14T13:51:04.274Z,1.48
2022-08-14T13:53:37.970Z,1.50
2022-08-14T13:56:14.555Z,2.13
2022-08-14T14:01:19.035Z,1.77
2022-08-14T14:03:51.422Z,1.95
2022-08-14T14:06:24.829Z,1.55
2022-08-14T14:08:59.025Z,1.70
2022-08-14T14:11:30.058Z,4.35
2022-08-14T14:13:59.936Z,3.85
2022-08-14T14:16:30.681Z,3.38
2022-08-14T14:19:09.687Z,2.17
2022-08-14T14:21:40.462Z,3.35
2022-08-14T14:24:14.951Z,1.90
2022-08-14T14:26:46.758Z,3.05
2022-08-14T14:29:15.013Z,2.30
2022-08-14T14:31:48.408Z,2.13
2022-08-14T14:34:30.293Z,2.85
2022-08-14T14:37:02.548Z,1.88
2022-08-14T14:39:35.170Z,2.55
2022-08-14T14:42:08.133Z,2.90
2022-08-14T14:44:41.245Z,2.05
2022-08-14T14:47:11.852Z,1.98
2022-08-14T14:49:55.107Z,2.15
2022-08-14T14:52:27.716Z,4.45
2022-08-14T14:54:58.249Z,2.53
2022-08-14T14:57:34.840Z,2.10
2022-08-14T15:00:06.888Z,2.25
2022-08-14T15:02:41.221Z,4.43
2022-08-14T15:05:14.023Z,4.50
2022-08-14T15:07:42.442Z,2.85
2022-08-14T15:10:27.658Z,3.65
2022-08-14T15:13:03.587Z,3.28
2022-08-14T15:15:32.715Z,3.95
2022-08-14T15:18:01.538Z,6.93
2022-08-14T15:20:31.629Z,2.45
2022-08-14T15:23:11.745Z,2.60
2022-08-14T15:25:40.782Z,2.63
2022-08-14T15:28:13.066Z,4.22
2022-08-14T15:30:50.981Z,2.85
2022-08-14T15:34:13.392Z,6.38
2022-08-14T15:36:29.813Z,5.30
2022-08-14T15:38:58.943Z,2.50
2022-08-14T15:41:41.244Z,2.67
2022-08-14T15:44:25.409Z,2.85
2022-08-14T15:46:54.588Z,3.13
2022-08-14T15:49:24.218Z,3.10
2022-08-14T15:51:53.704Z,3.50
2022-08-14T15:54:21.868Z,2.90
2022-08-14T15:56:58.370Z,3.00
2022-08-14T15:59:27.188Z,2.60
2022-08-14T16:01:55.413Z,3.63
2022-08-14T16:04:24.163Z,2.97
2022-08-14T16:06:54.763Z,3.45
2022-08-14T16:09:23.349Z,5.25
2022-08-14T16:11:54.008Z,2.70
2022-08-14T16:14:22.063Z,3.13
2022-08-14T16:17:00.096Z,2.55
2022-08-14T16:19:31.569Z,5.40
2022-08-14T16:22:57.306Z,5.25
2022-08-14T16:24:59.723Z,3.78
2022-08-14T16:27:39.456Z,4.18
2022-08-14T16:30:12.291Z,4.68
2022-08-14T16:32:55.093Z,4.18
2022-08-14T16:35:25.115Z,3.65
2022-08-14T16:37:56.277Z,3.53
2022-08-14T16:43:04.791Z,5.20
2022-08-14T16:45:43.690Z,3.80
2022-08-14T16:48:55.105Z,4.00
2022-08-14T16:51:01.623Z,3.10
2022-08-14T16:53:37.261Z,3.72
2022-08-14T16:56:17.118Z,6.15
2022-08-14T16:58:50.899Z,7.78
2022-08-14T17:01:24.917Z,4.28
2022-08-14T17:03:58.090Z,4.22
2022-08-14T17:06:43.027Z,2.85
2022-08-14T17:09:33.157Z,3.95
2022-08-14T17:12:07.238Z,2.70
2022-08-14T17:15:10.029Z,4.20
2022-08-14T17:17:49.938Z,4.10
2022-08-14T17:20:53.568Z,4.53
2022-08-14T17:23:15.693Z,3.25
2022-08-14T17:25:50.812Z,3.03
2022-08-14T17:28:52.188Z,3.10
2022-08-14T17:31:09.630Z,5.38
2022-08-14T17:33:40.930Z,3.72
2022-08-14T17:36:23.008Z,5.43
2022-08-14T17:39:02.722Z,4.30
2022-08-14T17:41:38.978Z,2.90
2022-08-14T17:44:33.319Z,4.13
2022-08-14T17:47:04.921Z,5.85
2022-08-14T17:49:34.686Z,3.33
2022-08-14T17:52:07.783Z,4.97
2022-08-14T17:54:47.187Z,5.65
2022-08-14T17:57:24.401Z,5.03
2022-08-14T18:00:01.234Z,2.88
2022-08-14T18:02:35.362Z,5.93
2022-08-14T18:05:03.498Z,5.72
2022-08-14T18:08:00.379Z,3.20
2022-08-14T18:10:52.059Z,7.10
2022-08-14T18:13:10.889Z,5.75
2022-08-14T18:15:41.407Z,5.07
2022-08-14T18:18:13.709Z,3.67
2022-08-14T18:21:39.967Z,2.83
2022-08-14T18:23:32.536Z,3.45
2022-08-14T18:26:37.176Z,2.70
2022-08-14T18:29:01.788Z,5.47
2022-08-14T18:31:41.930Z,3.70
2022-08-14T18:34:32.022Z,2.88
2022-08-14T18:37:17.048Z,4.18
2022-08-14T18:40:03.163Z,7.53
2022-08-14T18:42:57.198Z,5.50
2022-08-14T18:45:32.392Z,5.15
2022-08-14T18:48:50.204Z,4.95
2022-08-14T18:51:45.800Z,8.90
2022-08-14T18:54:29.701Z,5.90
2022-08-14T18:57:02.295Z,4.05
2022-08-14T18:59:35.350Z,4.50
2022-08-14T19:02:42.582Z,5.32
2022-08-14T19:05:13.374Z,5.57
2022-08-14T19:07:43.419Z,6.15
2022-08-14T19:10:32.018Z,5.53
2022-08-14T19:13:11.825Z,6.78
2022-08-14T19:15:43.658Z,5.68
2022-08-14T19:18:26.194Z,6.55
2022-08-14T19:20:58.524Z,6.18
2022-08-14T19:23:42.181Z,4.65
2022-08-14T19:26:33.649Z,5.78
2022-08-14T19:29:37.861Z,6.05
2022-08-14T19:32:39.716Z,7.63
2022-08-14T19:35:55.228Z,6.47
2022-08-14T19:39:00.249Z,6.07
2022-08-14T19:41:32.194Z,6.20
2022-08-14T19:44:11.511Z,6.95
2022-08-14T19:47:01.901Z,7.75
2022-08-14T19:50:24.605Z,8.68
2022-08-14T19:52:29.872Z,9.00
2022-08-14T19:55:00.665Z,8.38
2022-08-14T19:57:31.293Z,6.85
2022-08-14T20:00:28.566Z,8.00
2022-08-14T20:03:10.549Z,8.85
2022-08-14T20:05:45.629Z,9.70
2022-08-14T20:09:05.806Z,7.28
2022-08-14T20:11:15.825Z,9.18
2022-08-14T20:14:09.501Z,6.75
2022-08-14T20:16:40.781Z,6.60
2022-08-14T20:19:20.995Z,11.90
2022-08-14T20:22:04.346Z,7.70
2022-08-14T20:24:45.104Z,8.07
2022-08-14T20:27:39.417Z,8.23
2022-08-14T20:48:01.228Z,5.63
2022-08-14T20:50:31.812Z,7.88
2022-08-14T20:53:00.311Z,5.90
2022-08-14T20:55:30.532Z,6.70
2022-08-14T20:58:02.503Z,6.03
2022-08-14T21:00:52.292Z,7.10
2022-08-14T21:03:33.259Z,5.82
2022-08-14T21:06:16.072Z,5.25
2022-08-14T21:08:48.710Z,6.78
2022-08-14T21:11:21.895Z,4.55
2022-08-14T21:14:19.357Z,6.38
2022-08-14T21:16:58.660Z,5.20
2022-08-14T21:19:29.270Z,8.65
2022-08-14T21:22:01.760Z,4.40
2022-08-14T21:24:39.254Z,4.53
2022-08-14T21:27:21.930Z,8.68
2022-08-14T21:29:55.301Z,4.75
2022-08-14T21:32:36.540Z,6.07
2022-08-14T21:35:22.888Z,4.40
2022-08-14T21:37:52.443Z,5.70
2022-08-14T21:40:41.091Z,5.07
2022-08-14T21:43:17.440Z,5.85
2022-08-14T21:45:53.799Z,8.18
2022-08-14T21:48:25.199Z,6.82
2022-08-14T21:51:01.502Z,7.97
2022-08-14T21:53:59.317Z,7.35
2022-08-14T21:56:37.332Z,9.05
2022-08-14T21:59:09.435Z,8.70
2022-08-14T22:02:00.428Z,7.40
2022-08-14T22:04:34.335Z,9.88
2022-08-14T22:07:12.575Z,7.47
2022-08-14T22:09:44.944Z,12.43
2022-08-14T22:12:58.870Z,6.95
2022-08-14T22:15:12.461Z,7.45
2022-08-14T22:17:44.266Z,8.90
2022-08-14T22:20:16.395Z,14.73
2022-08-14T22:22:46.395Z,12.45
2022-08-14T22:25:16.139Z,11.68
2022-08-14T22:27:56.269Z,11.52
2022-08-14T22:30:26.376Z,7.30
2022-08-14T22:32:57.951Z,7.65
2022-08-14T22:35:27.766Z,7.25
2022-08-14T22:38:34.579Z,7.78
2022-08-14T22:41:07.305Z,5.45
2022-08-14T22:43:36.091Z,6.63
2022-08-14T22:46:14.462Z,4.88
2022-08-14T22:48:45.127Z,4.90
2022-08-14T22:51:14.788Z,10.43
2022-08-14T22:53:45.169Z,7.38
2022-08-14T22:56:20.882Z,8.63
2022-08-14T22:58:53.541Z,6.07
2022-08-14T23:01:55.114Z,7.25
2022-08-14T23:04:35.801Z,7.63
2022-08-14T23:07:05.266Z,5.32
2022-08-14T23:09:38.186Z,5.95
2022-08-14T23:12:27.999Z,5.28
2022-08-14T23:14:57.803Z,6.45
2022-08-14T23:17:27.230Z,5.20
2022-08-14T23:19:56.375Z,5.18
2022-08-14T23:22:26.121Z,5.75
2022-08-14T23:24:57.873Z,6.55
2022-08-14T23:27:31.965Z,5.55
2022-08-14T23:30:34.481Z,6.78
2022-08-14T23:33:03.180Z,5.47
2022-08-14T23:35:33.165Z,6.47
2022-08-14T23:38:03.033Z,5.97
2022-08-14T23:40:32.589Z,7.78
2022-08-14T23:43:08.222Z,5.78
2022-08-14T23:45:39.473Z,6.07
2022-08-14T23:48:12.528Z,6.68
2022-08-14T23:50:44.315Z,8.73
2022-08-14T23:53:27.923Z,6.25
2022-08-14T23:56:00.193Z,9.15
2022-08-14T23:58:33.093Z,6.68
